createdAt,value
2017-08-26T00:00:35.734Z,12.73
2017-08-26T00:03:04.006Z,13.63
2017-08-26T00:05:32.540Z,13.57
2017-08-26T00:08:00.983Z,13.30
2017-08-26T00:10:29.433Z,13.20
2017-08-26T00:12:57.982Z,12.30
2017-08-26T00:15:26.441Z,14.90
2017-08-26T00:17:54.906Z,12.53
2017-08-26T00:20:23.450Z,13.07
2017-08-26T00:22:51.929Z,14.23
2017-08-26T00:25:21.282Z,13.23
2017-08-26T00:27:49.779Z,15.03
2017-08-26T00:30:21.063Z,12.63
2017-08-26T00:32:49.587Z,14.37
2017-08-26T00:35:18.085Z,14.13
2017-08-26T00:37:46.531Z,13.50
2017-08-26T00:40:14.989Z,15.53
2017-08-26T00:42:43.658Z,13.43
2017-08-26T00:45:12.154Z,15.90
2017-08-26T00:47:40.690Z,13.23
2017-08-26T00:50:09.143Z,13.47
2017-08-26T00:52:37.632Z,14.60
2017-08-26T00:55:06.129Z,13.50
2017-08-26T00:57:34.621Z,15.03
2017-08-26T01:00:02.999Z,14.73
2017-08-26T01:02:31.481Z,14.80
2017-08-26T01:04:59.605Z,13.70
2017-08-26T01:07:32.746Z,13.10
2017-08-26T01:10:01.224Z,13.70
2017-08-26T01:12:29.715Z,15.57
2017-08-26T01:14:58.207Z,14.20
2017-08-26T01:17:26.782Z,14.77
2017-08-26T01:19:54.886Z,15.37
2017-08-26T01:22:23.033Z,14.57
2017-08-26T01:24:51.581Z,13.60
2017-08-26T01:27:20.042Z,14.60
2017-08-26T01:29:48.494Z,13.97
2017-08-26T01:32:16.974Z,13.43
2017-08-26T01:34:45.422Z,12.73
2017-08-26T01:37:13.906Z,12.57
2017-08-26T01:39:42.394Z,13.03
2017-08-26T01:42:10.880Z,14.10
2017-08-26T01:44:39.357Z,14.97
2017-08-26T01:47:07.851Z,14.27
2017-08-26T01:49:36.315Z,13.27
2017-08-26T01:52:04.802Z,14.70
2017-08-26T01:54:33.379Z,15.80
2017-08-26T01:57:01.830Z,14.67
2017-08-26T01:59:30.314Z,14.40
2017-08-26T02:01:58.822Z,13.50
2017-08-26T02:04:27.274Z,14.20
2017-08-26T02:06:55.762Z,13.13
2017-08-26T02:09:24.269Z,13.77
2017-08-26T02:11:52.753Z,13.77
2017-08-26T02:14:21.239Z,14.27
2017-08-26T02:16:49.756Z,14.43
2017-08-26T02:19:18.242Z,15.20
2017-08-26T02:21:46.746Z,15.30
2017-08-26T02:24:15.234Z,15.10
2017-08-26T02:26:43.722Z,15.53
2017-08-26T02:29:12.249Z,15.63
2017-08-26T02:31:40.691Z,16.57
2017-08-26T02:34:09.182Z,14.90
2017-08-26T02:36:37.648Z,18.10
2017-08-26T02:39:06.130Z,17.73
2017-08-26T02:41:34.588Z,16.10
2017-08-26T02:44:03.056Z,15.90
2017-08-26T02:46:31.601Z,14.67
2017-08-26T02:49:00.102Z,15.27
2017-08-26T02:51:28.602Z,14.90
2017-08-26T02:53:57.141Z,17.37
2017-08-26T02:56:25.637Z,16.37
2017-08-26T02:58:54.178Z,14.53
2017-08-26T03:01:22.753Z,15.27
2017-08-26T03:03:51.236Z,15.63
2017-08-26T03:06:19.713Z,15.17
2017-08-26T03:08:48.270Z,16.90
2017-08-26T03:11:16.762Z,14.97
2017-08-26T03:13:45.252Z,15.73
2017-08-26T03:16:13.733Z,15.03
2017-08-26T03:18:42.202Z,16.27
2017-08-26T03:21:10.708Z,15.10
2017-08-26T03:23:39.169Z,15.63
2017-08-26T03:26:07.638Z,15.23
2017-08-26T03:28:36.108Z,14.47
2017-08-26T03:31:04.606Z,15.40
2017-08-26T03:33:33.163Z,14.00
2017-08-26T03:36:02.431Z,13.93
2017-08-26T03:38:30.930Z,14.30
2017-08-26T03:40:59.569Z,14.67
2017-08-26T03:43:28.091Z,15.83
2017-08-26T03:45:56.565Z,14.40
2017-08-26T03:48:25.847Z,14.00
2017-08-26T03:50:54.297Z,14.67
2017-08-26T03:53:22.742Z,15.30
2017-08-26T03:55:52.059Z,13.60
2017-08-26T03:58:20.563Z,13.30
2017-08-26T04:00:49.065Z,14.53
2017-08-26T04:03:17.531Z,15.17
2017-08-26T04:05:46.054Z,14.47
2017-08-26T04:08:14.738Z,14.13
2017-08-26T04:10:43.266Z,14.67
2017-08-26T04:13:11.393Z,13.67
2017-08-26T04:15:39.880Z,15.33
2017-08-26T04:18:08.386Z,14.27
2017-08-26T04:20:36.854Z,13.50
2017-08-26T04:23:05.364Z,13.70
2017-08-26T04:25:33.922Z,15.13
2017-08-26T04:28:02.404Z,14.73
2017-08-26T04:30:30.875Z,16.90
2017-08-26T04:32:59.450Z,15.20
2017-08-26T04:35:28.000Z,14.50
2017-08-26T04:37:56.538Z,14.73
2017-08-26T04:40:25.122Z,13.77
2017-08-26T04:42:53.582Z,14.07
2017-08-26T04:45:22.058Z,12.83
2017-08-26T04:47:50.562Z,14.37
2017-08-26T04:50:19.117Z,13.20
2017-08-26T04:52:47.657Z,13.70
2017-08-26T04:55:16.161Z,14.77
2017-08-26T04:57:44.683Z,13.10
2017-08-26T05:00:13.248Z,14.13
2017-08-26T05:02:41.798Z,14.00
2017-08-26T05:05:10.310Z,12.67
2017-08-26T05:07:38.871Z,13.27
2017-08-26T05:10:07.369Z,12.50
2017-08-26T05:12:35.864Z,13.77
2017-08-26T05:15:04.473Z,13.20
2017-08-26T05:17:32.942Z,12.30
2017-08-26T05:20:01.476Z,12.97
2017-08-26T05:22:30.019Z,13.10
2017-08-26T05:24:58.486Z,12.60
2017-08-26T05:27:27.076Z,11.00
2017-08-26T05:29:55.642Z,11.40
2017-08-26T05:32:24.103Z,11.13
2017-08-26T05:34:52.549Z,11.67
2017-08-26T05:37:21.024Z,12.00
2017-08-26T05:39:49.575Z,12.63
2017-08-26T05:42:18.072Z,11.50
2017-08-26T05:44:46.643Z,10.97
2017-08-26T05:47:15.126Z,12.20
2017-08-26T05:49:43.628Z,11.13
2017-08-26T05:52:12.169Z,12.30
2017-08-26T05:54:40.633Z,12.40
2017-08-26T05:57:09.111Z,10.83
2017-08-26T05:59:37.642Z,11.10
2017-08-26T06:02:05.922Z,11.40
2017-08-26T06:04:34.442Z,11.93
2017-08-26T06:07:03.911Z,11.73
2017-08-26T06:09:32.386Z,12.07
2017-08-26T06:12:00.870Z,10.97
2017-08-26T06:14:29.345Z,11.40
2017-08-26T06:16:57.845Z,13.07
2017-08-26T06:19:26.354Z,11.00
2017-08-26T06:21:54.903Z,11.00
2017-08-26T06:24:23.378Z,11.07
2017-08-26T06:26:52.294Z,10.30
2017-08-26T06:29:20.826Z,10.53
2017-08-26T06:31:49.276Z,11.97
2017-08-26T06:34:18.387Z,10.93
2017-08-26T06:36:46.887Z,10.20
2017-08-26T06:39:15.617Z,10.87
2017-08-26T06:41:44.123Z,10.70
2017-08-26T06:44:12.592Z,11.53
2017-08-26T06:46:41.072Z,11.70
2017-08-26T06:49:09.555Z,11.03
2017-08-26T06:51:38.055Z,11.60
2017-08-26T06:54:06.507Z,12.57
2017-08-26T06:56:35.023Z,9.30
2017-08-26T06:59:03.571Z,10.73
2017-08-26T07:01:32.067Z,9.90
2017-08-26T07:04:00.584Z,9.93
2017-08-26T07:06:29.109Z,8.63
2017-08-26T07:08:57.599Z,8.57
2017-08-26T07:11:26.140Z,9.10
2017-08-26T07:13:54.668Z,9.90
2017-08-26T07:16:23.147Z,9.03
2017-08-26T07:18:52.518Z,9.50
2017-08-26T07:21:21.006Z,9.67
2017-08-26T07:23:49.470Z,10.20
2017-08-26T07:26:18.024Z,9.87
2017-08-26T07:28:46.489Z,8.73
2017-08-26T07:31:14.969Z,8.73
2017-08-26T07:36:19.590Z,7.97
2017-08-26T07:38:48.079Z,8.33
2017-08-26T07:41:16.607Z,7.73
2017-08-26T07:43:45.070Z,6.67
2017-08-26T07:46:13.536Z,7.17
2017-08-26T07:48:42.040Z,6.50
2017-08-26T07:51:10.512Z,7.20
2017-08-26T07:53:38.994Z,6.40
2017-08-26T07:56:07.555Z,6.70
2017-08-26T07:58:36.298Z,6.33
2017-08-26T08:01:07.903Z,6.03
2017-08-26T08:03:36.350Z,5.90
2017-08-26T08:06:04.871Z,5.60
2017-08-26T08:08:33.338Z,6.00
2017-08-26T08:11:01.811Z,6.43
2017-08-26T08:13:30.351Z,6.00
2017-08-26T08:16:01.156Z,5.43
2017-08-26T08:18:29.647Z,5.60
2017-08-26T08:20:58.191Z,5.60
2017-08-26T08:23:26.692Z,5.20
2017-08-26T08:25:55.153Z,5.47
2017-08-26T08:28:23.635Z,4.70
2017-08-26T08:30:52.166Z,5.87
2017-08-26T08:33:20.680Z,5.00
2017-08-26T08:35:52.355Z,5.60
2017-08-26T08:38:20.843Z,5.10
2017-08-26T08:40:49.333Z,5.00
2017-08-26T08:43:18.063Z,4.30
2017-08-26T08:45:46.591Z,4.60
2017-08-26T08:48:20.051Z,4.87
2017-08-26T08:50:48.504Z,4.90
2017-08-26T08:53:16.992Z,4.10
2017-08-26T08:55:45.294Z,4.23
2017-08-26T08:58:13.782Z,4.13
2017-08-26T09:00:42.290Z,3.90
2017-08-26T09:03:10.791Z,4.63
2017-08-26T09:05:39.284Z,3.53
2017-08-26T09:08:07.802Z,4.27
2017-08-26T09:10:36.274Z,3.50
2017-08-26T09:13:04.786Z,4.13
2017-08-26T09:15:33.258Z,3.50
2017-08-26T09:18:01.822Z,3.30
2017-08-26T09:20:30.273Z,3.40
2017-08-26T09:22:58.756Z,3.33
2017-08-26T09:25:27.262Z,2.80
2017-08-26T09:27:55.752Z,3.30
2017-08-26T09:30:24.215Z,3.03
2017-08-26T09:32:52.691Z,2.80
2017-08-26T09:35:21.234Z,3.20
2017-08-26T09:37:49.722Z,3.70
2017-08-26T09:40:18.182Z,3.50
2017-08-26T09:42:46.639Z,3.20
2017-08-26T09:45:15.082Z,3.30
2017-08-26T09:47:44.326Z,2.63
2017-08-26T09:50:12.596Z,2.90
2017-08-26T09:52:41.058Z,3.70
2017-08-26T09:55:09.537Z,3.43
2017-08-26T09:57:38.050Z,3.20
2017-08-26T10:00:06.510Z,2.30
2017-08-26T10:02:34.988Z,2.97
2017-08-26T10:05:03.472Z,2.70
2017-08-26T10:07:31.925Z,2.80
2017-08-26T10:10:01.155Z,3.13
2017-08-26T10:12:29.596Z,2.80
2017-08-26T10:14:58.061Z,2.20
2017-08-26T10:17:26.553Z,3.37
2017-08-26T10:19:55.011Z,2.47
2017-08-26T10:22:23.496Z,2.70
2017-08-26T10:24:51.971Z,2.77
2017-08-26T10:27:20.667Z,2.33
2017-08-26T10:29:48.965Z,2.70
2017-08-26T10:32:17.255Z,2.63
2017-08-26T10:34:45.541Z,2.73
2017-08-26T10:37:13.864Z,2.67
2017-08-26T10:39:42.122Z,2.63
2017-08-26T10:42:10.426Z,3.10
2017-08-26T10:44:38.671Z,2.87
2017-08-26T10:47:07.730Z,3.27
2017-08-26T10:49:36.013Z,3.50
2017-08-26T10:52:04.338Z,3.07
2017-08-26T10:54:32.801Z,3.77
2017-08-26T10:57:01.846Z,2.80
2017-08-26T10:59:30.297Z,3.57
2017-08-26T11:01:58.806Z,3.37
2017-08-26T11:04:27.268Z,3.70
2017-08-26T11:06:55.712Z,3.57
2017-08-26T11:09:24.227Z,3.43
2017-08-26T11:11:52.701Z,3.33
2017-08-26T11:14:21.157Z,3.50
2017-08-26T11:16:49.673Z,3.10
2017-08-26T11:19:18.133Z,3.67
2017-08-26T11:21:46.560Z,3.40
2017-08-26T11:24:15.121Z,3.43
2017-08-26T11:26:43.622Z,3.60
2017-08-26T11:29:12.197Z,4.07
2017-08-26T11:31:40.643Z,3.97
2017-08-26T11:34:09.097Z,4.10
2017-08-26T11:36:37.568Z,5.00
2017-08-26T11:39:06.060Z,5.00
2017-08-26T11:41:34.530Z,4.80
2017-08-26T11:44:03.039Z,5.00
2017-08-26T11:46:31.706Z,4.80
2017-08-26T11:49:00.157Z,4.37
2017-08-26T11:51:28.651Z,4.80
2017-08-26T11:53:57.091Z,5.43
2017-08-26T11:56:25.763Z,5.10
2017-08-26T11:58:54.215Z,5.50
2017-08-26T12:01:22.667Z,5.10
2017-08-26T12:03:51.138Z,5.07
2017-08-26T12:06:19.627Z,5.03
2017-08-26T12:08:48.139Z,5.30
2017-08-26T12:11:16.572Z,5.33
2017-08-26T12:13:45.089Z,5.27
2017-08-26T12:16:13.541Z,5.20
2017-08-26T12:18:42.006Z,4.40
2017-08-26T12:21:10.486Z,4.73
2017-08-26T12:23:39.715Z,4.40
2017-08-26T12:26:08.169Z,4.13
2017-08-26T12:28:36.700Z,4.77
2017-08-26T12:31:05.157Z,5.23
2017-08-26T12:33:33.614Z,5.00
2017-08-26T12:36:02.091Z,5.80
2017-08-26T12:38:30.550Z,5.10
2017-08-26T12:40:58.827Z,5.20
2017-08-26T12:43:27.289Z,4.20
2017-08-26T12:45:55.733Z,4.33
2017-08-26T12:48:24.190Z,4.53
2017-08-26T12:50:52.658Z,4.77
2017-08-26T12:53:21.115Z,4.30
2017-08-26T12:55:49.562Z,4.83
2017-08-26T12:58:18.061Z,5.60
2017-08-26T13:00:46.551Z,5.30
2017-08-26T13:03:15.056Z,5.17
2017-08-26T13:05:43.575Z,5.83
2017-08-26T13:08:11.828Z,5.93
2017-08-26T13:10:40.287Z,6.13
2017-08-26T13:13:08.777Z,7.17
2017-08-26T13:15:37.230Z,6.20
2017-08-26T13:18:05.702Z,5.60
2017-08-26T13:20:35.018Z,6.30
2017-08-26T13:23:03.470Z,5.10
2017-08-26T13:25:31.914Z,5.57
2017-08-26T13:28:00.373Z,6.30
2017-08-26T13:30:28.829Z,6.00
2017-08-26T13:32:57.345Z,6.87
2017-08-26T13:35:25.841Z,6.10
2017-08-26T13:37:54.328Z,6.07
2017-08-26T13:40:22.814Z,6.50
2017-08-26T13:42:51.316Z,7.20
2017-08-26T13:45:19.888Z,6.60
2017-08-26T13:47:48.370Z,6.30
2017-08-26T13:50:16.822Z,6.70
2017-08-26T13:52:45.299Z,7.07
2017-08-26T13:55:13.794Z,6.30
2017-08-26T13:57:42.242Z,7.03
2017-08-26T14:00:10.761Z,6.60
2017-08-26T14:02:39.192Z,6.20
2017-08-26T14:05:07.687Z,6.33
2017-08-26T14:07:36.169Z,6.70
2017-08-26T14:10:04.611Z,6.60
2017-08-26T14:12:33.432Z,6.87
2017-08-26T14:15:01.969Z,6.23
2017-08-26T14:17:30.409Z,6.80
2017-08-26T14:19:58.871Z,6.80
2017-08-26T14:22:28.101Z,6.50
2017-08-26T14:24:56.578Z,6.83
2017-08-26T14:27:25.042Z,7.30
2017-08-26T14:29:53.534Z,7.60
2017-08-26T14:32:22.027Z,7.20
2017-08-26T14:34:50.466Z,6.00
2017-08-26T14:37:18.926Z,8.17
2017-08-26T14:39:47.378Z,7.40
2017-08-26T14:42:15.824Z,7.23
2017-08-26T14:44:44.384Z,6.43
2017-08-26T14:47:12.841Z,5.97
2017-08-26T14:49:41.321Z,7.80
2017-08-26T14:52:09.806Z,6.93
2017-08-26T14:54:38.254Z,6.10
2017-08-26T14:57:06.770Z,6.80
2017-08-26T14:59:35.222Z,7.23
2017-08-26T15:02:03.704Z,6.50
2017-08-26T15:04:32.174Z,6.83
2017-08-26T15:07:00.642Z,6.33
2017-08-26T15:09:29.101Z,6.40
2017-08-26T15:11:57.532Z,6.57
2017-08-26T15:14:26.066Z,6.90
2017-08-26T15:16:54.567Z,6.47
2017-08-26T15:19:23.018Z,7.70
2017-08-26T15:21:51.539Z,6.57
2017-08-26T15:24:19.977Z,6.77
2017-08-26T15:26:48.437Z,7.00
2017-08-26T15:29:16.898Z,7.70
2017-08-26T15:31:47.412Z,6.70
2017-08-26T15:34:16.689Z,6.33
2017-08-26T15:36:45.147Z,6.33
2017-08-26T15:39:13.598Z,7.37
2017-08-26T15:41:42.866Z,8.10
2017-08-26T15:44:11.331Z,7.00
2017-08-26T15:46:39.823Z,7.50
2017-08-26T15:49:08.371Z,8.50
2017-08-26T15:51:36.838Z,8.10
2017-08-26T15:54:05.281Z,7.20
2017-08-26T15:56:33.780Z,7.90
2017-08-26T15:59:02.217Z,7.70
2017-08-26T16:01:30.678Z,6.67
2017-08-26T16:03:59.171Z,8.20
2017-08-26T16:06:27.635Z,8.33
2017-08-26T16:08:56.140Z,7.93
2017-08-26T16:11:24.707Z,8.10
2017-08-26T16:13:52.958Z,8.03
2017-08-26T16:16:21.393Z,7.50
2017-08-26T16:18:49.898Z,8.60
2017-08-26T16:21:18.349Z,7.43
2017-08-26T16:23:46.822Z,7.93
2017-08-26T16:26:15.312Z,6.93
2017-08-26T16:28:43.801Z,7.07
2017-08-26T16:31:12.296Z,7.80
2017-08-26T16:33:40.770Z,7.30
2017-08-26T16:36:09.200Z,6.90
2017-08-26T16:38:37.514Z,7.17
2017-08-26T16:41:06.042Z,7.40
2017-08-26T16:43:34.498Z,8.53
2017-08-26T16:46:02.946Z,7.50
2017-08-26T16:48:31.418Z,8.40
2017-08-26T16:50:59.921Z,8.80
2017-08-26T16:53:28.394Z,8.93
2017-08-26T16:55:56.919Z,9.10
2017-08-26T16:58:25.379Z,8.70
2017-08-26T17:00:53.883Z,8.80
2017-08-26T17:03:22.347Z,8.73
2017-08-26T17:05:50.783Z,8.30
2017-08-26T17:08:19.325Z,9.43
2017-08-26T17:10:47.822Z,8.70
2017-08-26T17:13:16.353Z,8.97
2017-08-26T17:15:45.069Z,9.40
2017-08-26T17:18:13.797Z,9.43
2017-08-26T17:20:42.245Z,9.57
2017-08-26T17:23:10.729Z,9.83
2017-08-26T17:25:39.204Z,9.20
2017-08-26T17:28:07.695Z,10.23
2017-08-26T17:30:36.181Z,9.90
2017-08-26T17:33:04.717Z,8.30
2017-08-26T17:35:33.166Z,11.63
2017-08-26T17:38:01.600Z,10.37
2017-08-26T17:40:30.118Z,10.90
2017-08-26T17:42:58.627Z,9.27
2017-08-26T17:45:27.175Z,10.00
2017-08-26T17:47:55.711Z,9.70
2017-08-26T17:50:24.230Z,11.20
2017-08-26T17:52:52.730Z,10.50
2017-08-26T17:55:21.333Z,9.47
2017-08-26T17:57:49.836Z,11.37
2017-08-26T18:00:18.336Z,9.57
2017-08-26T18:02:47.605Z,10.23
2017-08-26T18:05:16.137Z,12.10
2017-08-26T18:07:44.726Z,9.40
2017-08-26T18:10:13.226Z,9.53
2017-08-26T18:12:41.720Z,9.97
2017-08-26T18:15:10.223Z,9.70
2017-08-26T18:17:38.824Z,11.07
2017-08-26T18:20:07.360Z,10.63
2017-08-26T18:22:35.843Z,10.67
2017-08-26T18:25:04.330Z,10.90
2017-08-26T18:27:32.867Z,10.40
2017-08-26T18:30:01.336Z,12.43
2017-08-26T18:32:29.866Z,10.40
2017-08-26T18:34:58.422Z,10.10
2017-08-26T18:37:26.945Z,9.13
2017-08-26T18:39:55.550Z,10.07
2017-08-26T18:42:24.123Z,10.80
2017-08-26T18:44:53.144Z,9.30
2017-08-26T18:47:21.670Z,9.80
2017-08-26T18:49:50.365Z,10.23
2017-08-26T18:52:19.057Z,9.70
2017-08-26T18:54:47.644Z,11.43
2017-08-26T18:57:16.151Z,9.60
2017-08-26T18:59:44.666Z,10.67
2017-08-26T19:02:13.199Z,11.33
2017-08-26T19:04:41.688Z,10.40
2017-08-26T19:07:10.208Z,9.93
2017-08-26T19:09:38.699Z,10.67
2017-08-26T19:12:07.215Z,11.80
2017-08-26T19:14:35.798Z,9.57
2017-08-26T19:17:04.347Z,10.67
2017-08-26T19:19:32.838Z,10.97
2017-08-26T19:22:01.379Z,10.90
2017-08-26T19:24:29.895Z,10.97
2017-08-26T19:26:58.378Z,11.07
2017-08-26T19:29:26.942Z,10.37
2017-08-26T19:31:55.444Z,11.97
2017-08-26T19:34:23.619Z,11.67
2017-08-26T19:36:52.159Z,11.17
2017-08-26T19:39:20.655Z,12.20
2017-08-26T19:41:49.172Z,11.73
2017-08-26T19:44:17.936Z,11.80
2017-08-26T19:46:46.460Z,11.83
2017-08-26T19:49:14.938Z,10.67
2017-08-26T19:51:43.459Z,11.70
2017-08-26T19:54:11.941Z,11.27
2017-08-26T19:56:40.433Z,12.03
2017-08-26T19:59:08.779Z,11.47
2017-08-26T20:01:37.251Z,11.73
2017-08-26T20:04:05.747Z,11.07
2017-08-26T20:06:34.232Z,12.23
2017-08-26T20:09:02.706Z,12.40
2017-08-26T20:11:31.222Z,13.80
2017-08-26T20:13:59.766Z,14.30
2017-08-26T20:16:28.289Z,13.53
2017-08-26T20:18:56.806Z,14.37
2017-08-26T20:21:25.343Z,15.60
2017-08-26T20:23:54.016Z,15.10
2017-08-26T20:26:22.551Z,12.40
2017-08-26T20:28:51.102Z,13.80
2017-08-26T20:31:19.605Z,13.97
2017-08-26T20:33:47.948Z,14.20
2017-08-26T20:36:16.298Z,14.33
2017-08-26T20:38:44.610Z,16.13
2017-08-26T20:41:13.087Z,16.53
2017-08-26T20:43:41.594Z,16.23
2017-08-26T20:46:10.190Z,18.93
2017-08-26T20:48:38.687Z,15.33
2017-08-26T20:51:07.172Z,14.87
2017-08-26T20:53:35.714Z,16.10
2017-08-26T20:56:04.239Z,17.00
2017-08-26T20:58:32.563Z,16.63
2017-08-26T21:01:00.874Z,16.73
2017-08-26T21:03:29.346Z,16.67
2017-08-26T21:05:57.623Z,16.07
2017-08-26T21:08:26.159Z,17.87
2017-08-26T21:10:54.655Z,18.40
2017-08-26T21:13:23.183Z,16.03
2017-08-26T21:15:51.715Z,16.90
2017-08-26T21:18:20.234Z,17.10
2017-08-26T21:20:48.742Z,17.03
2017-08-26T21:23:17.234Z,15.27
2017-08-26T21:25:45.730Z,16.63
2017-08-26T21:28:14.258Z,14.87
2017-08-26T21:30:42.795Z,14.77
2017-08-26T21:33:11.322Z,14.77
2017-08-26T21:35:39.856Z,14.43
2017-08-26T21:38:09.253Z,14.00
2017-08-26T21:40:37.872Z,13.47
2017-08-26T21:43:07.115Z,12.23
2017-08-26T21:45:35.647Z,13.97
2017-08-26T21:48:04.128Z,13.77
2017-08-26T21:50:32.622Z,13.60
2017-08-26T21:53:01.138Z,14.50
2017-08-26T21:55:29.711Z,13.97
2017-08-26T21:57:58.289Z,14.83
2017-08-26T22:00:26.782Z,14.53
2017-08-26T22:02:55.457Z,13.30
2017-08-26T22:05:23.963Z,14.00
2017-08-26T22:07:52.462Z,14.00
2017-08-26T22:10:21.428Z,14.57
2017-08-26T22:12:49.923Z,14.70
2017-08-26T22:15:18.224Z,13.90
2017-08-26T22:17:46.783Z,15.87
2017-08-26T22:20:15.288Z,13.60
2017-08-26T22:22:44.014Z,14.47
2017-08-26T22:25:12.545Z,17.30
2017-08-26T22:27:41.089Z,15.47
2017-08-26T22:30:09.586Z,14.63
2017-08-26T22:32:38.294Z,14.83
2017-08-26T22:35:06.816Z,13.33
2017-08-26T22:37:35.325Z,12.73
2017-08-26T22:40:03.779Z,13.67
2017-08-26T22:42:32.305Z,12.93
2017-08-26T22:45:00.842Z,12.90
2017-08-26T22:47:29.579Z,12.90
2017-08-26T22:49:58.078Z,13.97
2017-08-26T22:52:26.567Z,13.77
2017-08-26T22:54:54.913Z,13.97
2017-08-26T22:57:23.421Z,12.77
2017-08-26T22:59:51.925Z,13.67
2017-08-26T23:02:22.090Z,12.30
2017-08-26T23:04:50.590Z,12.27
2017-08-26T23:07:19.111Z,13.90
2017-08-26T23:09:47.618Z,13.53
2017-08-26T23:12:16.102Z,13.07
2017-08-26T23:14:44.667Z,13.40
2017-08-26T23:17:13.243Z,15.30
2017-08-26T23:19:41.758Z,13.20
2017-08-26T23:22:10.328Z,11.93
2017-08-26T23:24:38.892Z,12.90
2017-08-26T23:27:07.221Z,13.37
2017-08-26T23:29:35.723Z,14.27
2017-08-26T23:32:04.243Z,13.70
2017-08-26T23:34:32.576Z,12.50
2017-08-26T23:37:01.242Z,13.50
2017-08-26T23:39:29.714Z,14.40
2017-08-26T23:41:58.203Z,13.33
2017-08-26T23:44:26.702Z,13.37
2017-08-26T23:46:55.212Z,13.37
2017-08-26T23:49:23.559Z,13.73
2017-08-26T23:51:52.062Z,13.10
2017-08-26T23:54:20.596Z,13.37
2017-08-26T23:56:49.106Z,12.60
2017-08-26T23:59:17.640Z,13.53
